createdAt,value
2023-05-07T00:00:20.289Z,59.80
2023-05-07T00:02:51.156Z,60.00
2023-05-07T00:05:18.894Z,60.10
2023-05-07T00:07:46.452Z,60.00
2023-05-07T00:10:14.262Z,59.90
2023-05-07T00:12:43.224Z,60.10
2023-05-07T00:15:13.496Z,60.60
2023-05-07T00:17:42.338Z,60.70
2023-05-07T00:20:10.248Z,60.80
2023-05-07T00:22:42.023Z,60.80
2023-05-07T00:25:09.552Z,60.80
2023-05-07T00:27:40.255Z,60.70
2023-05-07T00:30:07.776Z,60.80
2023-05-07T00:32:35.079Z,61.00
2023-05-07T00:35:04.897Z,61.20
2023-05-07T00:37:32.296Z,61.00
2023-05-07T00:40:00.380Z,61.20
2023-05-07T00:42:30.653Z,61.40
2023-05-07T00:44:57.807Z,61.80
2023-05-07T00:47:25.450Z,61.80
2023-05-07T00:49:52.827Z,61.80
2023-05-07T00:52:21.588Z,62.10
2023-05-07T00:54:48.821Z,62.40
2023-05-07T00:57:16.436Z,62.60
2023-05-07T00:59:45.986Z,62.90
2023-05-07T01:02:14.397Z,63.00
2023-05-07T01:04:43.707Z,63.00
2023-05-07T01:07:13.167Z,63.10
2023-05-07T01:09:40.732Z,63.20
2023-05-07T01:12:08.450Z,63.40
2023-05-07T01:14:36.598Z,63.40
2023-05-07T01:17:03.970Z,63.60
2023-05-07T01:19:31.413Z,63.50
2023-05-07T01:22:10.468Z,63.20
2023-05-07T01:24:38.249Z,63.10
2023-05-07T01:27:06.800Z,63.00
2023-05-07T01:29:33.984Z,63.20
2023-05-07T01:32:01.993Z,63.30
2023-05-07T01:34:34.553Z,63.50
2023-05-07T01:37:02.943Z,63.80
2023-05-07T01:39:30.808Z,63.90
2023-05-07T01:41:58.201Z,64.00
2023-05-07T01:44:30.068Z,64.10
2023-05-07T01:46:58.713Z,64.10
2023-05-07T01:49:25.884Z,63.90
2023-05-07T01:51:53.098Z,63.70
2023-05-07T01:54:21.916Z,63.70
2023-05-07T01:56:50.107Z,63.80
2023-05-07T01:59:17.232Z,63.80
2023-05-07T02:01:44.533Z,63.70
2023-05-07T02:04:13.058Z,63.70
2023-05-07T02:06:43.396Z,63.80
2023-05-07T02:09:10.956Z,64.00
2023-05-07T02:11:38.269Z,64.30
2023-05-07T02:14:05.618Z,64.60
2023-05-07T02:16:34.651Z,64.60
2023-05-07T02:19:03.127Z,64.70
2023-05-07T02:21:31.254Z,65.00
2023-05-07T02:23:58.723Z,64.90
2023-05-07T02:26:27.051Z,64.80
2023-05-07T02:28:54.982Z,65.50
2023-05-07T02:31:22.765Z,65.00
2023-05-07T02:33:52.332Z,65.10
2023-05-07T02:36:20.467Z,65.40
2023-05-07T02:38:47.740Z,65.50
2023-05-07T02:41:14.968Z,65.60
2023-05-07T02:43:42.349Z,65.60
2023-05-07T02:46:10.175Z,65.60
2023-05-07T02:48:37.578Z,65.80
2023-05-07T02:51:05.392Z,66.10
2023-05-07T02:53:33.637Z,66.10
2023-05-07T02:56:01.858Z,65.90
2023-05-07T02:58:29.743Z,65.70
2023-05-07T03:00:57.106Z,65.90
2023-05-07T03:03:24.450Z,66.10
2023-05-07T03:05:54.544Z,66.10
2023-05-07T03:08:24.252Z,66.00
2023-05-07T03:10:51.368Z,65.80
2023-05-07T03:13:18.756Z,65.80
2023-05-07T03:15:46.699Z,65.80
2023-05-07T03:18:16.253Z,65.50
2023-05-07T03:20:43.568Z,65.60
2023-05-07T03:23:10.830Z,65.60
2023-05-07T03:25:40.353Z,66.20
2023-05-07T03:28:07.627Z,65.70
2023-05-07T03:30:34.846Z,65.80
2023-05-07T03:33:01.968Z,66.10
2023-05-07T03:35:29.344Z,66.20
2023-05-07T03:37:56.955Z,66.30
2023-05-07T03:40:24.394Z,66.30
2023-05-07T03:42:51.596Z,66.40
2023-05-07T03:45:18.760Z,66.90
2023-05-07T03:47:46.239Z,66.20
2023-05-07T03:50:13.649Z,66.10
2023-05-07T03:52:41.234Z,66.00
2023-05-07T03:55:08.745Z,66.20
2023-05-07T03:57:36.361Z,66.20
2023-05-07T04:00:10.190Z,66.20
2023-05-07T04:02:41.022Z,66.00
2023-05-07T04:05:08.635Z,66.00
2023-05-07T04:07:36.193Z,66.00
2023-05-07T04:10:03.511Z,66.00
2023-05-07T04:12:30.804Z,66.20
2023-05-07T04:14:58.219Z,66.20
2023-05-07T04:17:25.526Z,66.40
2023-05-07T04:19:52.688Z,66.40
2023-05-07T04:22:21.094Z,66.40
2023-05-07T04:24:49.612Z,66.20
2023-05-07T04:27:18.379Z,66.30
2023-05-07T04:29:48.580Z,66.30
2023-05-07T04:32:16.366Z,66.40
2023-05-07T04:34:47.492Z,66.30
2023-05-07T04:37:14.778Z,66.10
2023-05-07T04:39:42.260Z,66.00
2023-05-07T04:42:10.868Z,65.90
2023-05-07T04:44:40.605Z,66.00
2023-05-07T04:47:08.106Z,65.80
2023-05-07T04:49:35.705Z,66.40
2023-05-07T04:52:07.345Z,65.70
2023-05-07T04:54:35.097Z,65.40
2023-05-07T04:57:05.289Z,65.30
2023-05-07T04:59:36.528Z,64.90
2023-05-07T05:02:11.911Z,64.80
2023-05-07T05:04:40.614Z,64.80
2023-05-07T05:07:08.057Z,64.80
2023-05-07T05:09:36.946Z,64.50
2023-05-07T05:12:05.918Z,64.50
2023-05-07T05:14:35.246Z,64.40
2023-05-07T05:17:08.662Z,64.10
2023-05-07T05:19:59.674Z,64.00
2023-05-07T05:22:27.028Z,63.90
2023-05-07T05:24:55.391Z,64.00
2023-05-07T05:27:22.698Z,64.00
2023-05-07T05:29:49.872Z,64.30
2023-05-07T05:32:19.485Z,64.60
2023-05-07T05:34:47.054Z,64.80
2023-05-07T05:37:15.821Z,64.70
2023-05-07T05:39:45.020Z,64.60
2023-05-07T05:42:12.512Z,64.40
2023-05-07T05:44:39.715Z,64.70
2023-05-07T05:47:07.452Z,64.70
2023-05-07T05:49:40.548Z,64.50
2023-05-07T05:52:11.679Z,65.20
2023-05-07T05:54:39.074Z,64.30
2023-05-07T05:57:06.522Z,63.30
2023-05-07T05:59:35.271Z,63.00
2023-05-07T06:02:02.989Z,62.80
2023-05-07T06:04:32.285Z,62.50
2023-05-07T06:06:59.675Z,62.10
2023-05-07T06:09:27.207Z,62.10
2023-05-07T06:11:55.186Z,61.80
2023-05-07T06:14:23.453Z,61.60
2023-05-07T06:16:51.305Z,61.30
2023-05-07T06:27:05.263Z,60.60
2023-05-07T06:29:35.709Z,59.90
2023-05-07T07:18:49.906Z,53.90
2023-05-07T07:40:32.854Z,51.90
2023-05-07T07:43:05.116Z,52.20
2023-05-07T07:59:20.437Z,51.70
2023-05-07T08:01:52.888Z,50.80
2023-05-07T08:04:22.941Z,51.00
2023-05-07T08:06:50.881Z,50.80
2023-05-07T08:09:23.632Z,50.80
2023-05-07T08:11:52.921Z,50.00
2023-05-07T08:47:37.485Z,45.40
2023-05-07T08:50:09.215Z,44.00
2023-05-07T09:00:45.828Z,43.10
2023-05-07T09:03:14.308Z,41.80
2023-05-07T09:05:45.702Z,41.70
2023-05-07T09:08:21.960Z,41.80
2023-05-07T09:10:52.504Z,41.40
2023-05-07T09:21:32.508Z,40.00
2023-05-07T09:34:58.646Z,38.20
2023-05-07T09:42:37.026Z,35.50
2023-05-07T09:48:02.597Z,36.70
2023-05-07T09:50:33.920Z,37.40
2023-05-07T09:53:05.048Z,35.80
2023-05-07T09:55:38.363Z,36.70
2023-05-07T09:58:08.061Z,36.70
2023-05-07T10:00:35.694Z,35.70
2023-05-07T10:03:09.375Z,35.90
2023-05-07T10:05:39.469Z,36.10
2023-05-07T10:10:43.394Z,36.70
2023-05-07T10:22:31.201Z,35.00
2023-05-07T10:25:01.287Z,35.60
2023-05-07T10:27:28.649Z,36.30
2023-05-07T10:30:33.514Z,35.30
2023-05-07T10:33:11.080Z,35.80
2023-05-07T10:35:49.120Z,35.80
2023-05-07T11:22:57.374Z,33.80
2023-05-07T11:29:14.563Z,34.60
2023-05-07T11:31:42.261Z,34.50
2023-05-07T11:34:15.870Z,33.80
2023-05-07T11:36:45.317Z,33.30
2023-05-07T11:39:34.926Z,32.70
2023-05-07T11:42:04.454Z,32.80
2023-05-07T11:44:52.068Z,33.40
2023-05-07T11:47:26.262Z,34.60
2023-05-07T11:49:54.894Z,34.50
2023-05-07T11:52:23.106Z,35.60
2023-05-07T11:54:54.198Z,35.70
2023-05-07T11:57:23.599Z,35.80
2023-05-07T13:48:23.438Z,31.60
2023-05-07T14:04:27.685Z,32.90
2023-05-07T14:07:01.283Z,33.60
2023-05-07T14:12:10.678Z,32.80
2023-05-07T14:14:47.846Z,32.60
2023-05-07T14:44:51.763Z,33.60
2023-05-07T14:47:20.037Z,32.60
2023-05-07T14:49:47.506Z,33.40
2023-05-07T14:52:14.941Z,33.00
2023-05-07T14:54:46.641Z,32.70
2023-05-07T14:57:17.407Z,33.20
2023-05-07T14:59:44.994Z,32.60
2023-05-07T15:02:15.047Z,33.30
2023-05-07T15:04:47.338Z,33.60
2023-05-07T15:07:16.411Z,33.40
2023-05-07T15:09:47.606Z,33.80
2023-05-07T15:12:15.238Z,34.40
2023-05-07T15:14:46.574Z,35.20
2023-05-07T15:17:16.946Z,35.30
2023-05-07T15:19:44.118Z,34.50
2023-05-07T15:22:20.414Z,34.40
2023-05-07T15:33:02.837Z,34.80
2023-05-07T15:35:34.748Z,34.50
2023-05-07T15:38:04.898Z,34.50
2023-05-07T15:40:39.728Z,34.70
2023-05-07T15:45:33.135Z,34.90
2023-05-07T15:57:37.400Z,35.50
2023-05-07T16:00:09.474Z,35.80
2023-05-07T16:02:38.836Z,36.00
2023-05-07T16:33:45.684Z,36.60
2023-05-07T16:38:49.845Z,36.20
2023-05-07T16:41:17.394Z,36.60
2023-05-07T16:43:44.980Z,36.70
2023-05-07T16:46:13.732Z,36.70
2023-05-07T16:48:42.461Z,37.00
2023-05-07T16:51:27.739Z,37.00
2023-05-07T16:53:55.328Z,37.40
2023-05-07T16:56:25.297Z,37.80
2023-05-07T16:58:57.220Z,37.50
2023-05-07T17:01:28.857Z,37.90
2023-05-07T17:04:11.099Z,38.50
2023-05-07T17:06:43.664Z,38.80
2023-05-07T17:09:11.497Z,38.80
2023-05-07T17:11:39.159Z,38.60
2023-05-07T17:25:28.629Z,39.40
2023-05-07T17:28:01.389Z,38.70
2023-05-07T17:30:29.895Z,38.60
2023-05-07T17:33:09.314Z,38.90
2023-05-07T17:35:40.923Z,38.90
2023-05-07T18:08:21.382Z,42.50
2023-05-07T18:10:48.810Z,42.20
2023-05-07T18:13:19.230Z,42.50
2023-05-07T18:15:54.381Z,43.20
2023-05-07T18:18:29.641Z,43.40
2023-05-07T18:20:59.480Z,43.30
2023-05-07T18:23:38.098Z,43.80
2023-05-07T18:34:14.153Z,45.10
2023-05-07T18:36:41.770Z,45.20
2023-05-07T19:01:04.188Z,46.50
2023-05-07T19:03:32.236Z,46.60
2023-05-07T19:06:08.500Z,46.50
2023-05-07T19:50:16.041Z,47.90
2023-05-07T19:52:44.095Z,48.00
2023-05-07T19:55:14.000Z,48.20
2023-05-07T19:57:42.565Z,48.20
2023-05-07T20:00:13.647Z,48.30
2023-05-07T20:02:41.342Z,48.30
2023-05-07T20:05:11.359Z,48.20
2023-05-07T20:07:40.913Z,48.30
2023-05-07T20:10:09.061Z,48.60
2023-05-07T20:12:39.724Z,48.80
2023-05-07T20:15:07.954Z,49.10
2023-05-07T20:17:35.142Z,49.60
2023-05-07T20:20:02.549Z,49.90
2023-05-07T20:22:35.812Z,49.80
2023-05-07T20:25:05.933Z,49.90
2023-05-07T20:27:34.829Z,50.10
2023-05-07T20:30:02.458Z,50.30
2023-05-07T20:32:29.737Z,50.30
2023-05-07T20:34:59.329Z,50.10
2023-05-07T20:37:27.099Z,50.10
2023-05-07T20:39:54.161Z,50.20
2023-05-07T20:42:21.323Z,50.30
2023-05-07T20:44:48.802Z,50.50
2023-05-07T20:47:15.986Z,50.40
2023-05-07T20:49:43.226Z,50.70
2023-05-07T20:52:10.446Z,51.30
2023-05-07T20:54:40.574Z,51.60
2023-05-07T20:57:07.794Z,51.90
2023-05-07T20:59:35.172Z,52.50
2023-05-07T21:02:03.042Z,52.50
2023-05-07T21:04:31.112Z,52.60
2023-05-07T21:06:58.233Z,52.60
2023-05-07T21:09:25.482Z,52.70
2023-05-07T21:11:53.140Z,52.70
2023-05-07T21:14:21.256Z,52.50
2023-05-07T21:16:48.376Z,52.40
2023-05-07T21:19:16.017Z,52.60
2023-05-07T21:21:43.236Z,52.70
2023-05-07T21:24:10.330Z,52.90
2023-05-07T21:26:39.182Z,52.90
2023-05-07T21:29:06.359Z,52.80
2023-05-07T21:31:33.811Z,52.90
2023-05-07T21:34:01.093Z,53.00
2023-05-07T21:36:29.117Z,53.20
2023-05-07T21:38:56.405Z,53.30
2023-05-07T21:41:26.339Z,53.40
2023-05-07T21:43:55.066Z,53.40
2023-05-07T21:46:24.570Z,53.50
2023-05-07T21:48:51.772Z,53.70
2023-05-07T21:51:18.830Z,53.80
2023-05-07T21:53:46.208Z,53.80
2023-05-07T21:56:13.246Z,53.80
2023-05-07T21:58:40.832Z,53.70
2023-05-07T22:01:16.697Z,53.90
2023-05-07T22:03:43.914Z,54.10
2023-05-07T22:06:11.271Z,54.20
2023-05-07T22:08:38.564Z,54.70
2023-05-07T22:11:05.967Z,55.00
2023-05-07T22:13:33.345Z,55.20
2023-05-07T22:16:03.649Z,55.70
2023-05-07T22:18:30.814Z,55.80
2023-05-07T22:20:58.165Z,55.60
2023-05-07T22:23:25.288Z,55.50
2023-05-07T22:25:52.864Z,56.80
2023-05-07T22:28:20.196Z,58.40
2023-05-07T22:30:47.456Z,58.70
2023-05-07T22:33:14.819Z,58.80
2023-05-07T22:35:42.041Z,59.30
2023-05-07T22:38:09.121Z,59.50
2023-05-07T22:40:36.252Z,60.20
2023-05-07T22:43:03.335Z,59.50
2023-05-07T22:45:30.406Z,60.50
2023-05-07T22:47:57.495Z,62.50
2023-05-07T22:50:26.147Z,63.50
2023-05-07T22:52:53.135Z,64.80
2023-05-07T22:55:20.273Z,65.60
2023-05-07T22:57:47.640Z,66.50
2023-05-07T23:00:15.457Z,67.70
2023-05-07T23:02:43.048Z,67.70
2023-05-07T23:05:11.280Z,67.70
2023-05-07T23:07:39.685Z,67.10
2023-05-07T23:10:07.336Z,67.20
2023-05-07T23:12:34.525Z,67.60
2023-05-07T23:15:01.677Z,67.60
2023-05-07T23:17:28.731Z,67.60
2023-05-07T23:19:56.117Z,67.30
2023-05-07T23:22:23.258Z,67.30
2023-05-07T23:24:50.448Z,67.60
2023-05-07T23:27:17.829Z,67.30
2023-05-07T23:29:46.457Z,67.50
2023-05-07T23:32:13.484Z,67.90
2023-05-07T23:34:41.224Z,68.20
2023-05-07T23:37:11.239Z,68.20
2023-05-07T23:39:38.364Z,68.50
2023-05-07T23:42:05.520Z,68.70
2023-05-07T23:44:32.647Z,68.70
2023-05-07T23:46:59.716Z,68.80
2023-05-07T23:49:26.712Z,68.40
2023-05-07T23:51:53.906Z,68.60
2023-05-07T23:54:20.892Z,69.40
2023-05-07T23:56:48.473Z,70.30
2023-05-07T23:59:15.553Z,70.60
